Time;durP1;ratioP1;P1;durP2;ratioP2;P2;SDS_P1;SDS_P2;PMS_P1;PMS_P2;Temp;Humidity;BMP_temperature;BMP_pressure;BME280_temperature;BME280_humidity;BME280_pressure;Samples;Min_cycle;Max_cycle;Signal;HPM_P1;HPM_P2
2021/03/10 00:02:17;;;;;;;0.50;0.50;;;6.20;99.90;;;;;;5069938;28;20181;-66
2021/03/10 00:04:43;;;;;;;0.70;0.70;;;6.20;99.90;;;;;;5052399;28;20227;-65
2021/03/10 00:07:08;;;;;;;1.37;1.27;;;6.10;99.90;;;;;;5053147;28;20169;-66
2021/03/10 00:09:34;;;;;;;1.67;1.57;;;6.10;99.90;;;;;;5064895;28;20177;-66
2021/03/10 00:11:59;;;;;;;0.30;0.30;;;6.10;99.90;;;;;;5060585;28;20540;-66
2021/03/10 00:14:25;;;;;;;0.30;0.20;;;6.10;99.90;;;;;;5072438;28;20169;-67
2021/03/10 00:16:51;;;;;;;0.82;0.82;;;6.00;99.90;;;;;;5066195;28;20240;-66
2021/03/10 00:19:17;;;;;;;0.70;0.70;;;6.10;99.90;;;;;;5051355;28;20204;-67
2021/03/10 00:21:43;;;;;;;0.30;0.30;;;6.10;99.90;;;;;;5056618;28;20176;-66
2021/03/10 00:24:09;;;;;;;0.30;0.30;;;6.10;99.90;;;;;;5066759;28;20945;-67
2021/03/10 00:26:35;;;;;;;1.30;1.13;;;6.00;99.90;;;;;;5056065;28;20606;-66
2021/03/10 00:29:00;;;;;;;0.37;0.37;;;6.00;99.90;;;;;;5071440;28;20169;-66
2021/03/10 00:31:26;;;;;;;0.30;0.30;;;6.00;99.90;;;;;;5069701;28;20172;-66
2021/03/10 00:33:52;;;;;;;0.30;0.30;;;6.00;99.90;;;;;;5068996;28;20419;-66
2021/03/10 00:36:19;;;;;;;0.33;0.33;;;5.90;99.90;;;;;;5074968;28;20250;-65
2021/03/10 00:38:45;;;;;;;1.20;1.20;;;5.90;99.90;;;;;;5054593;28;20204;-66
2021/03/10 00:41:11;;;;;;;0.30;0.30;;;5.90;99.90;;;;;;5056042;28;20553;-67
2021/03/10 00:43:37;;;;;;;0.32;0.32;;;5.90;99.90;;;;;;5071811;28;20165;-66
2021/03/10 00:46:02;;;;;;;0.67;0.67;;;5.90;99.90;;;;;;5055420;28;20250;-67
2021/03/10 00:48:28;;;;;;;0.50;0.50;;;5.90;99.90;;;;;;5073902;28;20177;-66
2021/03/10 00:50:54;;;;;;;0.57;0.57;;;5.90;99.90;;;;;;5074052;28;20642;-67
2021/03/10 00:53:19;;;;;;;0.40;0.40;;;5.90;99.90;;;;;;5055836;28;20235;-66
2021/03/10 00:55:45;;;;;;;0.47;0.47;;;5.90;99.90;;;;;;5056986;28;20299;-67
2021/03/10 00:58:10;;;;;;;1.33;0.73;;;5.90;99.90;;;;;;5055868;28;20262;-66
2021/03/10 01:00:36;;;;;;;0.30;0.30;;;6.00;99.90;;;;;;5055647;28;20259;-65
2021/03/10 01:03:02;;;;;;;0.30;0.30;;;5.90;99.90;;;;;;5073422;28;20169;-66
2021/03/10 01:05:27;;;;;;;0.40;0.40;;;6.00;99.90;;;;;;5075098;28;20184;-67
2021/03/10 01:07:53;;;;;;;0.83;0.83;;;6.00;99.90;;;;;;5057888;28;20178;-66
2021/03/10 01:10:19;;;;;;;0.50;0.50;;;6.00;99.90;;;;;;5056079;28;20666;-65
2021/03/10 01:12:45;;;;;;;0.30;0.30;;;5.90;99.90;;;;;;5058322;28;20272;-67
2021/03/10 01:15:17;;;;;;;0.37;0.37;;;5.90;99.90;;;;;;5054960;28;20415;-67
2021/03/10 01:17:43;;;;;;;0.40;0.40;;;6.00;99.90;;;;;;5069632;28;20204;-67
2021/03/10 01:20:12;;;;;;;0.30;0.30;;;6.00;99.90;;;;;;5074962;28;20535;-66
2021/03/10 01:22:38;;;;;;;0.60;0.60;;;6.00;99.90;;;;;;5060694;28;20537;-66
2021/03/10 01:25:05;;;;;;;0.87;0.63;;;6.00;99.90;;;;;;5054739;28;20200;-66
2021/03/10 01:27:31;;;;;;;1.50;1.50;;;6.00;99.90;;;;;;5067488;28;20222;-66
2021/03/10 01:29:56;;;;;;;0.30;0.30;;;5.90;99.90;;;;;;5075349;28;20165;-67
2021/03/10 01:32:22;;;;;;;0.30;0.30;;;6.00;99.90;;;;;;5065495;28;20173;-67
2021/03/10 01:34:48;;;;;;;0.30;0.30;;;6.00;99.90;;;;;;5074643;28;20168;-67
2021/03/10 01:37:13;;;;;;;0.47;0.47;;;6.00;99.90;;;;;;5064722;28;20689;-67
2021/03/10 01:39:39;;;;;;;1.40;1.37;;;5.90;99.90;;;;;;5054688;28;20565;-67
2021/03/10 01:42:06;;;;;;;0.40;0.40;;;5.90;99.90;;;;;;5062866;28;20218;-68
2021/03/10 01:44:32;;;;;;;0.40;0.40;;;6.00;99.90;;;;;;5074112;28;20179;-66
2021/03/10 01:46:58;;;;;;;0.88;0.88;;;6.00;99.90;;;;;;5066160;28;20202;-66
2021/03/10 01:49:25;;;;;;;2.15;1.38;;;6.00;99.90;;;;;;5054827;28;20220;-68
2021/03/10 01:51:50;;;;;;;0.50;0.50;;;5.90;99.90;;;;;;5064555;28;20173;-65
2021/03/10 01:54:16;;;;;;;0.30;0.20;;;5.90;99.90;;;;;;5063350;28;20268;-67
2021/03/10 01:56:42;;;;;;;0.37;0.37;;;5.90;99.90;;;;;;5067501;28;20460;-66
2021/03/10 01:59:09;;;;;;;2.15;0.85;;;5.90;99.90;;;;;;5054467;28;20207;-67
2021/03/10 02:01:35;;;;;;;2.45;1.15;;;5.90;99.90;;;;;;5055512;28;20208;-66
2021/03/10 02:04:05;;;;;;;0.30;0.30;;;5.90;99.90;;;;;;5054149;28;20714;-66
2021/03/10 02:06:49;;;;;;;0.30;0.30;;;5.90;99.90;;;;;;5057678;28;20196;-66
2021/03/10 02:09:42;;;;;;;0.30;0.30;;;5.90;99.90;;;;;;5074307;28;20181;-66
2021/03/10 02:12:35;;;;;;;0.40;0.40;;;5.90;99.90;;;;;;5056161;28;20189;-66
2021/03/10 02:15:06;;;;;;;0.30;0.30;;;5.90;99.90;;;;;;5053876;28;20185;-68
2021/03/10 02:17:37;;;;;;;0.30;0.30;;;5.90;99.90;;;;;;5055082;28;20177;-67
2021/03/10 02:20:11;;;;;;;0.30;0.30;;;6.00;99.90;;;;;;5054399;28;20662;-66
2021/03/10 02:23:10;;;;;;;0.40;0.40;;;6.00;99.90;;;;;;5068014;28;20223;-67
2021/03/10 02:26:29;;;;;;;0.60;0.60;;;6.00;99.90;;;;;;5070001;28;20558;-66
2021/03/10 02:29:07;;;;;;;0.45;0.45;;;6.00;99.90;;;;;;5052102;28;20239;-67
2021/03/10 02:31:36;;;;;;;0.93;0.93;;;6.00;99.90;;;;;;5057166;28;20539;-66
2021/03/10 02:34:03;;;;;;;0.30;0.30;;;6.00;99.90;;;;;;5072046;28;20279;-67
2021/03/10 02:36:30;;;;;;;0.30;0.30;;;6.00;99.90;;;;;;5057058;28;20196;-66
2021/03/10 02:39:00;;;;;;;0.40;0.40;;;5.90;99.90;;;;;;5073720;28;20203;-66
2021/03/10 02:41:28;;;;;;;1.42;1.33;;;5.90;99.90;;;;;;5070808;28;20187;-67
2021/03/10 02:43:55;;;;;;;0.30;0.30;;;5.90;99.90;;;;;;5053651;28;20256;-68
2021/03/10 02:46:20;;;;;;;0.40;0.40;;;5.90;99.90;;;;;;5054757;28;20193;-67
2021/03/10 02:48:47;;;;;;;0.57;0.57;;;5.90;99.90;;;;;;5072511;28;20196;-68
2021/03/10 02:51:15;;;;;;;0.82;0.82;;;6.00;99.90;;;;;;5062916;28;20486;-67
2021/03/10 02:53:42;;;;;;;0.50;0.50;;;6.00;99.90;;;;;;5073652;28;20214;-69
2021/03/10 02:56:11;;;;;;;0.30;0.30;;;6.00;99.90;;;;;;5062526;28;20201;-66
2021/03/10 02:58:41;;;;;;;0.52;0.52;;;6.00;99.90;;;;;;5065400;28;20275;-67
2021/03/10 03:01:08;;;;;;;0.85;0.85;;;5.90;99.90;;;;;;5064299;28;20185;-67
2021/03/10 03:03:34;;;;;;;1.83;1.63;;;6.00;99.90;;;;;;5052195;28;20655;-68
2021/03/10 03:05:59;;;;;;;1.23;1.13;;;5.90;99.90;;;;;;5060731;28;20201;-67
2021/03/10 03:08:26;;;;;;;0.43;0.43;;;5.90;99.90;;;;;;5061545;28;20230;-67
2021/03/10 03:10:53;;;;;;;0.30;0.30;;;5.90;99.90;;;;;;5058536;28;20230;-67
2021/03/10 03:13:20;;;;;;;0.30;0.30;;;6.00;99.90;;;;;;5073567;28;20183;-67
2021/03/10 03:15:52;;;;;;;0.88;0.88;;;6.00;99.90;;;;;;5067365;28;20198;-67
2021/03/10 03:18:18;;;;;;;0.32;0.32;;;5.90;99.90;;;;;;5073445;28;20193;-67
2021/03/10 03:20:44;;;;;;;1.85;1.75;;;5.90;99.90;;;;;;5067837;28;20189;-66
2021/03/10 03:23:10;;;;;;;0.30;0.30;;;5.90;99.90;;;;;;5051829;28;20169;-67
2021/03/10 03:25:39;;;;;;;0.50;0.50;;;5.80;99.90;;;;;;5058316;28;20264;-68
2021/03/10 03:28:08;;;;;;;1.77;1.70;;;5.90;99.90;;;;;;5053401;28;20415;-68
2021/03/10 03:30:37;;;;;;;0.73;0.73;;;5.80;99.90;;;;;;5073374;28;20314;-67
2021/03/10 03:33:10;;;;;;;4.00;2.55;;;5.80;99.90;;;;;;5073444;28;20161;-66
2021/03/10 03:35:37;;;;;;;0.93;0.90;;;5.80;99.90;;;;;;5062465;28;20225;-66
2021/03/10 03:38:04;;;;;;;0.82;0.82;;;5.70;99.90;;;;;;5053050;28;20282;-66
2021/03/10 03:40:31;;;;;;;0.93;0.93;;;5.80;99.90;;;;;;5070799;28;20169;-67
2021/03/10 03:43:00;;;;;;;0.30;0.30;;;5.80;99.90;;;;;;5073223;28;20169;-66
2021/03/10 03:45:26;;;;;;;0.30;0.30;;;5.80;99.90;;;;;;5059971;28;20192;-66
2021/03/10 03:47:56;;;;;;;1.53;1.43;;;5.80;99.90;;;;;;5057742;28;20656;-67
2021/03/10 03:50:24;;;;;;;0.30;0.30;;;5.70;99.90;;;;;;5053033;28;20407;-67
2021/03/10 03:52:50;;;;;;;1.52;0.82;;;5.70;99.90;;;;;;5065288;28;20223;-67
2021/03/10 03:55:16;;;;;;;0.95;0.95;;;5.70;99.90;;;;;;5066437;28;20189;-67
2021/03/10 03:57:42;;;;;;;0.30;0.30;;;5.60;99.90;;;;;;5064049;28;20509;-67
2021/03/10 04:00:14;;;;;;;0.30;0.30;;;5.60;99.90;;;;;;5072858;28;20187;-65
2021/03/10 04:02:40;;;;;;;0.50;0.50;;;5.60;99.90;;;;;;5061136;28;20426;-67
2021/03/10 04:05:07;;;;;;;2.13;2.00;;;5.60;99.90;;;;;;5056301;28;20263;-67
2021/03/10 04:07:32;;;;;;;0.30;0.30;;;5.50;99.90;;;;;;5063602;28;20423;-68
2021/03/10 04:09:58;;;;;;;0.40;0.40;;;5.50;99.90;;;;;;5056581;28;20535;-67
2021/03/10 04:12:24;;;;;;;0.40;0.40;;;5.50;99.90;;;;;;5065834;28;20751;-67
2021/03/10 04:14:49;;;;;;;1.60;1.50;;;5.50;99.90;;;;;;5074399;28;20531;-66
2021/03/10 04:17:15;;;;;;;0.30;0.30;;;5.50;99.90;;;;;;5063410;28;20341;-67
2021/03/10 04:19:42;;;;;;;0.60;0.60;;;5.50;99.90;;;;;;5076567;28;20201;-66
2021/03/10 04:22:07;;;;;;;0.40;0.40;;;5.50;99.90;;;;;;5068361;28;20170;-67
2021/03/10 04:24:33;;;;;;;0.30;0.30;;;5.50;99.90;;;;;;5057362;28;20174;-67
2021/03/10 04:26:59;;;;;;;0.40;0.40;;;5.50;99.90;;;;;;5071247;28;20225;-67
2021/03/10 04:29:24;;;;;;;0.60;0.60;;;5.50;99.90;;;;;;5056425;28;20169;-67
2021/03/10 04:31:50;;;;;;;0.33;0.33;;;5.60;99.90;;;;;;5057326;28;20200;-67
2021/03/10 04:34:16;;;;;;;1.23;1.13;;;5.60;99.90;;;;;;5063910;28;20173;-67
2021/03/10 04:36:41;;;;;;;0.40;0.40;;;5.60;99.90;;;;;;5059945;28;20188;-69
2021/03/10 04:39:07;;;;;;;0.60;0.60;;;5.60;99.90;;;;;;5070167;28;20192;-67
2021/03/10 04:41:33;;;;;;;0.40;0.40;;;5.60;99.90;;;;;;5057879;28;20221;-67
2021/03/10 04:43:58;;;;;;;1.70;1.40;;;5.50;99.90;;;;;;5068451;28;20177;-67
2021/03/10 04:46:24;;;;;;;0.30;0.30;;;5.60;99.90;;;;;;5056432;28;20223;-67
2021/03/10 04:48:50;;;;;;;0.30;0.30;;;5.60;99.90;;;;;;5076193;28;20179;-65
2021/03/10 04:51:15;;;;;;;0.30;0.30;;;5.60;99.90;;;;;;5061639;28;20177;-67
2021/03/10 04:53:41;;;;;;;1.50;1.27;;;5.60;99.90;;;;;;5059005;28;20200;-68
2021/03/10 04:56:06;;;;;;;0.40;0.40;;;5.60;99.90;;;;;;5063056;28;20218;-66
2021/03/10 04:58:32;;;;;;;0.30;0.30;;;5.60;99.90;;;;;;5055678;28;20274;-66
2021/03/10 05:00:58;;;;;;;0.97;0.97;;;5.50;99.90;;;;;;5066015;28;20169;-67
2021/03/10 05:03:23;;;;;;;0.93;0.93;;;5.50;99.90;;;;;;5061621;28;20532;-66
2021/03/10 05:05:49;;;;;;;1.33;1.30;;;5.50;99.90;;;;;;5064450;28;20219;-67
2021/03/10 05:08:15;;;;;;;0.30;0.30;;;5.50;99.90;;;;;;5075589;28;20255;-66
2021/03/10 05:10:41;;;;;;;0.30;0.30;;;5.50;99.90;;;;;;5067420;28;20516;-66
2021/03/10 05:13:07;;;;;;;0.30;0.30;;;5.50;99.90;;;;;;5066598;28;20173;-66
2021/03/10 05:15:32;;;;;;;0.30;0.30;;;5.40;99.90;;;;;;5073148;28;20185;-67
2021/03/10 05:17:58;;;;;;;1.57;1.47;;;5.40;99.90;;;;;;5075290;28;20200;-67
2021/03/10 05:20:24;;;;;;;0.30;0.30;;;5.40;99.90;;;;;;5070949;28;20223;-67
2021/03/10 05:22:49;;;;;;;2.50;2.40;;;5.40;99.90;;;;;;5075164;28;20165;-67
2021/03/10 05:25:15;;;;;;;0.30;0.30;;;5.40;99.90;;;;;;5071871;28;20525;-67
2021/03/10 05:27:41;;;;;;;2.10;2.00;;;5.40;99.90;;;;;;5055401;28;20196;-67
2021/03/10 05:30:09;;;;;;;0.40;0.40;;;5.40;99.90;;;;;;5056071;28;20909;-67
2021/03/10 05:32:35;;;;;;;0.40;0.40;;;5.40;99.90;;;;;;5056009;28;20578;-67
2021/03/10 05:35:01;;;;;;;0.30;0.30;;;5.50;99.90;;;;;;5054553;28;20220;-68
2021/03/10 05:37:27;;;;;;;0.57;0.57;;;5.40;99.90;;;;;;5074623;28;20180;-66
2021/03/10 05:39:52;;;;;;;0.80;0.80;;;5.40;99.90;;;;;;5065533;28;20266;-66
2021/03/10 05:42:19;;;;;;;0.63;0.63;;;5.40;99.90;;;;;;5072425;28;20185;-66
2021/03/10 05:44:49;;;;;;;0.95;0.95;;;5.50;99.90;;;;;;5074387;28;20168;-66
2021/03/10 05:47:15;;;;;;;0.30;0.30;;;5.40;99.90;;;;;;5057646;28;20177;-66
2021/03/10 05:49:41;;;;;;;0.30;0.30;;;5.50;99.90;;;;;;5055029;28;20178;-67
2021/03/10 05:52:07;;;;;;;0.40;0.40;;;5.50;99.90;;;;;;5069632;28;20256;-66
2021/03/10 05:54:37;;;;;;;0.55;0.55;;;5.50;99.90;;;;;;5074289;28;20651;-67
2021/03/10 05:57:04;;;;;;;0.73;0.73;;;5.50;99.90;;;;;;5072764;28;20212;-68
2021/03/10 05:59:30;;;;;;;0.30;0.30;;;5.50;99.90;;;;;;5057942;28;20201;-66
2021/03/10 06:01:58;;;;;;;0.50;0.50;;;5.50;99.90;;;;;;5066154;28;20173;-67
2021/03/10 06:04:24;;;;;;;0.52;0.52;;;5.50;99.90;;;;;;5074132;28;20659;-68
2021/03/10 06:06:51;;;;;;;0.77;0.77;;;5.50;99.90;;;;;;5073574;28;20673;-67
2021/03/10 06:09:16;;;;;;;1.00;1.00;;;5.60;99.90;;;;;;5073140;28;20184;-67
2021/03/10 06:12:02;;;;;;;0.80;0.80;;;5.60;99.90;;;;;;5067338;28;20181;-68
2021/03/10 06:14:29;;;;;;;2.00;1.90;;;5.60;99.90;;;;;;5074001;28;20225;-66
2021/03/10 06:17:09;;;;;;;0.88;0.88;;;5.60;99.90;;;;;;5064061;28;20611;-67
2021/03/10 06:19:42;;;;;;;0.50;0.50;;;5.70;99.90;;;;;;5054066;28;20255;-67
2021/03/10 06:22:09;;;;;;;1.08;0.70;;;5.70;99.90;;;;;;5070306;28;20223;-67
2021/03/10 06:24:35;;;;;;;0.60;0.55;;;5.70;99.90;;;;;;5073825;28;20172;-66
2021/03/10 06:27:04;;;;;;;2.63;2.47;;;5.80;99.90;;;;;;5059027;28;20609;-68
2021/03/10 06:29:30;;;;;;;2.40;2.30;;;5.80;99.90;;;;;;5054505;28;20660;-68
2021/03/10 06:32:09;;;;;;;0.30;0.30;;;5.80;99.90;;;;;;5067364;28;20210;-66
2021/03/10 06:34:45;;;;;;;1.00;0.95;;;5.80;99.90;;;;;;5053741;28;20439;-66
2021/03/10 06:37:12;;;;;;;0.82;0.82;;;5.90;99.90;;;;;;5052684;28;20547;-67
2021/03/10 06:39:38;;;;;;;0.82;0.82;;;5.90;99.90;;;;;;5055041;28;20196;-67
2021/03/10 06:42:18;;;;;;;1.02;0.70;;;5.90;99.90;;;;;;5074094;28;20225;-68
2021/03/10 06:45:13;;;;;;;0.45;0.45;;;6.00;99.90;;;;;;5068905;28;20201;-68
2021/03/10 06:47:41;;;;;;;0.38;0.38;;;6.00;99.90;;;;;;5052978;28;20533;-68
2021/03/10 06:50:10;;;;;;;0.40;0.40;;;6.10;99.90;;;;;;5053779;28;20219;-67
2021/03/10 06:52:49;;;;;;;0.40;0.40;;;6.10;99.90;;;;;;5053686;28;20496;-69
2021/03/10 06:55:16;;;;;;;0.50;0.50;;;6.20;99.90;;;;;;5053651;28;20201;-68
2021/03/10 06:57:45;;;;;;;0.57;0.57;;;6.20;99.90;;;;;;5071448;28;20184;-67
2021/03/10 07:00:30;;;;;;;1.38;1.38;;;6.30;99.90;;;;;;5110526;27;20347;-67
2021/03/10 07:02:58;;;;;;;0.40;0.40;;;6.30;99.90;;;;;;5111165;28;20176;-66
2021/03/10 07:05:25;;;;;;;0.32;0.32;;;6.40;99.90;;;;;;5103920;28;20851;-66
2021/03/10 07:07:59;;;;;;;0.30;0.30;;;6.50;99.90;;;;;;5088840;28;20889;-67
2021/03/10 07:10:27;;;;;;;1.10;1.10;;;6.50;99.90;;;;;;5090475;28;20589;-67
2021/03/10 07:13:04;;;;;;;2.05;1.60;;;6.60;99.90;;;;;;5090421;28;20187;-68
2021/03/10 07:15:30;;;;;;;0.50;0.50;;;6.60;99.90;;;;;;5089792;28;20203;-69
2021/03/10 07:17:58;;;;;;;0.40;0.40;;;6.70;99.90;;;;;;5090454;28;20173;-66
2021/03/10 07:20:24;;;;;;;0.30;0.20;;;6.70;99.90;;;;;;5090234;28;20594;-67
2021/03/10 07:23:04;;;;;;;0.30;0.30;;;6.70;99.90;;;;;;5090162;28;20193;-68
2021/03/10 07:25:33;;;;;;;0.88;0.88;;;6.70;99.90;;;;;;5088703;28;20200;-68
2021/03/10 07:28:15;;;;;;;0.30;0.30;;;6.80;99.90;;;;;;5090325;28;20161;-68
2021/03/10 07:30:46;;;;;;;0.93;0.93;;;6.90;99.90;;;;;;5090387;28;20251;-66
2021/03/10 07:33:17;;;;;;;0.30;0.30;;;7.00;99.90;;;;;;5088404;28;20169;-66
2021/03/10 07:35:52;;;;;;;0.35;0.35;;;7.10;99.90;;;;;;5089677;28;20604;-66
2021/03/10 07:38:42;;;;;;;0.30;0.30;;;7.10;99.90;;;;;;5089029;28;20947;-67
2021/03/10 07:41:11;;;;;;;0.30;0.30;;;7.20;99.90;;;;;;5089775;28;20512;-67
2021/03/10 07:43:46;;;;;;;0.52;0.52;;;7.30;99.90;;;;;;5088399;28;20175;-69
2021/03/10 07:46:32;;;;;;;0.88;0.88;;;7.40;99.90;;;;;;5090416;28;20275;-70
2021/03/10 07:49:05;;;;;;;0.30;0.30;;;7.50;99.90;;;;;;5090390;28;20246;-69
2021/03/10 07:51:33;;;;;;;1.15;1.15;;;7.60;99.90;;;;;;5090022;28;20170;-69
2021/03/10 07:54:01;;;;;;;0.60;0.60;;;7.80;99.90;;;;;;5087983;28;20181;-67
2021/03/10 07:56:33;;;;;;;0.68;0.68;;;7.90;99.90;;;;;;5089691;28;20200;-67
2021/03/10 07:59:16;;;;;;;1.20;1.17;;;8.00;99.90;;;;;;5089665;28;20213;-66
2021/03/10 08:01:41;;;;;;;0.30;0.30;;;8.20;99.90;;;;;;5088526;28;20172;-67
2021/03/10 08:04:09;;;;;;;0.60;0.60;;;8.20;99.90;;;;;;5089538;28;20176;-67
2021/03/10 08:06:42;;;;;;;0.40;0.40;;;8.20;99.90;;;;;;5089349;28;20434;-67
2021/03/10 08:09:08;;;;;;;1.92;1.60;;;8.30;99.90;;;;;;5089660;28;20636;-65
2021/03/10 08:11:42;;;;;;;0.30;0.30;;;8.30;99.90;;;;;;5077084;28;20262;-64
2021/03/10 08:14:20;;;;;;;0.57;0.57;;;8.30;99.90;;;;;;5074043;28;20191;-67
2021/03/10 08:16:50;;;;;;;3.50;0.85;;;8.40;99.90;;;;;;5075984;28;20184;-67
2021/03/10 08:19:21;;;;;;;0.63;0.63;;;8.50;99.90;;;;;;5074704;28;20211;-67
2021/03/10 08:21:52;;;;;;;0.40;0.40;;;8.60;99.90;;;;;;5075383;28;20177;-67
2021/03/10 08:24:19;;;;;;;0.30;0.20;;;8.60;99.90;;;;;;5075270;28;20524;-68
2021/03/10 08:26:57;;;;;;;2.88;2.67;;;8.70;99.90;;;;;;5075575;28;20219;-67
2021/03/10 08:29:26;;;;;;;0.88;0.60;;;8.70;99.90;;;;;;5074373;28;20172;-69
2021/03/10 08:31:56;;;;;;;1.05;1.05;;;8.70;99.90;;;;;;5075019;28;20527;-65
2021/03/10 08:34:34;;;;;;;1.60;1.50;;;8.80;99.90;;;;;;5074932;28;20179;-67
2021/03/10 08:37:01;;;;;;;0.80;0.65;;;8.90;99.90;;;;;;5075403;28;20621;-68
2021/03/10 08:39:41;;;;;;;2.80;1.98;;;9.00;99.90;;;;;;5075048;28;20200;-67
2021/03/10 08:42:06;;;;;;;0.30;0.20;;;9.20;99.90;;;;;;5075102;28;20176;-68
2021/03/10 08:44:40;;;;;;;0.30;0.30;;;9.30;99.90;;;;;;5075149;28;20191;-67
2021/03/10 08:47:24;;;;;;;0.30;0.30;;;9.30;99.90;;;;;;5075389;28;20795;-66
2021/03/10 08:49:55;;;;;;;0.40;0.40;;;9.40;99.90;;;;;;5074123;28;20263;-69
2021/03/10 08:52:23;;;;;;;0.88;0.88;;;9.40;99.90;;;;;;5073732;28;20200;-68
2021/03/10 08:54:50;;;;;;;0.88;0.88;;;9.50;99.90;;;;;;5074044;28;20168;-66
2021/03/10 08:57:17;;;;;;;0.90;0.90;;;9.70;99.90;;;;;;5075044;28;20177;-66
2021/03/10 08:59:43;;;;;;;0.70;0.70;;;9.90;99.90;;;;;;5074797;28;20285;-66
2021/03/10 09:02:11;;;;;;;0.75;0.75;;;10.20;99.90;;;;;;5073297;28;20203;-67
2021/03/10 09:04:42;;;;;;;0.30;0.30;;;10.60;99.90;;;;;;5074575;28;20168;-66
2021/03/10 09:07:08;;;;;;;0.73;0.73;;;10.90;99.90;;;;;;5074823;28;20175;-66
2021/03/10 09:09:34;;;;;;;0.40;0.40;;;11.20;99.70;;;;;;5074810;28;20256;-66
2021/03/10 09:12:00;;;;;;;0.90;0.80;;;11.50;98.30;;;;;;5074978;28;20447;-66
2021/03/10 09:14:29;;;;;;;4.83;3.80;;;11.60;97.80;;;;;;5074459;28;20175;-67
2021/03/10 09:17:00;;;;;;;0.50;0.50;;;11.80;97.60;;;;;;5073061;28;20445;-66
2021/03/10 09:19:32;;;;;;;0.60;0.50;;;12.00;97.10;;;;;;5074875;28;20810;-66
2021/03/10 09:22:12;;;;;;;3.10;2.90;;;12.20;96.90;;;;;;5073838;28;20504;-66
2021/03/10 09:24:55;;;;;;;1.40;1.17;;;12.30;96.10;;;;;;5072682;28;20825;-67
2021/03/10 09:27:25;;;;;;;1.20;0.43;;;12.40;95.70;;;;;;5074840;28;20445;-68
2021/03/10 09:29:57;;;;;;;1.10;0.30;;;12.60;95.40;;;;;;5073279;28;20421;-66
2021/03/10 09:32:24;;;;;;;1.30;0.40;;;12.70;95.40;;;;;;5073449;28;20974;-67
2021/03/10 09:34:55;;;;;;;1.60;0.80;;;13.10;95.20;;;;;;5073744;28;20433;-68
2021/03/10 09:37:25;;;;;;;1.90;0.97;;;13.60;94.00;;;;;;5074471;28;20794;-69
2021/03/10 09:43:25;;;;;;;2.00;0.50;;;13.70;92.90;;;;;;4991920;28;20493;-67
2021/03/10 09:46:01;;;;;;;2.70;1.07;;;13.70;92.90;;;;;;5066759;28;20446;-68
2021/03/10 09:48:38;;;;;;;3.00;1.57;;;13.80;92.60;;;;;;5074524;28;20766;-68
2021/03/10 09:51:15;;;;;;;2.50;0.87;;;13.80;92.60;;;;;;5074172;28;20411;-67
2021/03/10 09:53:47;;;;;;;5.13;2.50;;;13.80;92.20;;;;;;5074393;28;20406;-67
2021/03/10 09:56:18;;;;;;;3.90;1.17;;;13.80;91.60;;;;;;5072325;28;20477;-67
2021/03/10 09:58:55;;;;;;;3.80;2.20;;;13.70;90.90;;;;;;5072483;28;20463;-68
2021/03/10 10:01:23;;;;;;;2.30;0.70;;;13.60;90.60;;;;;;5074118;28;20520;-67
2021/03/10 10:03:49;;;;;;;2.50;0.93;;;13.30;91.00;;;;;;5073659;28;20411;-66
2021/03/10 10:06:17;;;;;;;3.30;1.20;;;13.00;91.70;;;;;;5073303;28;20444;-67
2021/03/10 10:08:45;;;;;;;2.20;0.60;;;12.70;92.30;;;;;;5073746;28;20448;-68
2021/03/10 10:11:11;;;;;;;2.60;0.97;;;12.50;93.00;;;;;;5073766;28;20421;-66
2021/03/10 10:13:42;;;;;;;2.20;0.67;;;12.30;92.80;;;;;;5072448;28;20423;-68
2021/03/10 10:16:10;;;;;;;2.10;0.30;;;11.90;93.40;;;;;;5073286;28;20473;-67
2021/03/10 10:18:38;;;;;;;2.77;0.93;;;11.60;93.70;;;;;;5073589;28;20455;-68
2021/03/10 10:21:04;;;;;;;2.10;0.40;;;11.40;94.10;;;;;;5073213;28;20466;-68
2021/03/10 10:23:36;;;;;;;2.10;0.43;;;11.30;94.50;;;;;;5073549;28;20416;-67
2021/03/10 10:26:05;;;;;;;2.40;1.03;;;11.40;94.30;;;;;;5073195;28;20277;-68
2021/03/10 10:28:30;;;;;;;2.97;1.43;;;11.70;93.50;;;;;;5073539;28;20484;-67
2021/03/10 10:30:57;;;;;;;2.97;1.53;;;12.00;92.90;;;;;;5073370;28;20416;-66
2021/03/10 10:33:23;;;;;;;4.23;1.17;;;12.20;92.40;;;;;;5073137;28;20190;-66
2021/03/10 10:35:49;;;;;;;2.40;0.73;;;12.30;91.30;;;;;;5073062;28;20437;-65
2021/03/10 10:38:15;;;;;;;2.70;0.53;;;12.40;91.20;;;;;;5073616;28;20415;-66
2021/03/10 10:40:41;;;;;;;2.13;0.50;;;12.40;89.90;;;;;;5072034;28;20410;-67
2021/03/10 10:43:07;;;;;;;2.20;0.50;;;12.50;90.00;;;;;;5064599;28;20265;-65
2021/03/10 10:45:33;;;;;;;2.20;0.40;;;12.30;88.80;;;;;;5059639;28;20445;-65
2021/03/10 10:47:58;;;;;;;2.10;0.30;;;12.30;89.80;;;;;;5053417;28;20171;-66
2021/03/10 10:50:24;;;;;;;2.40;0.70;;;12.20;85.90;;;;;;5060782;28;20459;-67
2021/03/10 10:52:51;;;;;;;2.40;0.50;;;12.20;83.70;;;;;;5064111;28;20476;-65
2021/03/10 10:55:18;;;;;;;2.10;0.30;;;12.10;83.00;;;;;;5063938;28;20874;-66
2021/03/10 10:57:45;;;;;;;2.30;0.70;;;11.90;82.10;;;;;;5073113;28;20814;-65
2021/03/10 11:00:16;;;;;;;2.10;0.40;;;11.80;81.20;;;;;;5072652;28;20487;-67
2021/03/10 11:02:42;;;;;;;2.13;0.40;;;12.00;80.20;;;;;;5073386;28;20481;-67
2021/03/10 11:05:08;;;;;;;2.10;0.30;;;12.10;81.00;;;;;;5071452;28;20839;-67
2021/03/10 11:07:34;;;;;;;2.40;0.60;;;12.20;79.00;;;;;;5073218;28;20434;-68
2021/03/10 11:10:00;;;;;;;2.17;0.40;;;12.30;78.10;;;;;;5072873;28;20420;-67
2021/03/10 11:12:25;;;;;;;2.20;0.33;;;12.30;77.40;;;;;;5072952;28;20178;-68
2021/03/10 11:14:51;;;;;;;2.20;0.40;;;12.30;76.50;;;;;;5072559;28;20174;-70
2021/03/10 11:17:17;;;;;;;2.23;0.50;;;12.30;77.50;;;;;;5072981;28;20179;-69
2021/03/10 11:19:42;;;;;;;2.20;0.47;;;12.10;78.60;;;;;;5072226;28;20209;-68
2021/03/10 11:22:08;;;;;;;2.40;0.77;;;12.00;79.60;;;;;;5072898;28;20166;-67
2021/03/10 11:24:37;;;;;;;2.30;0.63;;;12.10;81.20;;;;;;5072625;28;20636;-68
2021/03/10 11:27:03;;;;;;;2.40;0.60;;;12.10;81.60;;;;;;5072571;28;20195;-67
2021/03/10 11:29:29;;;;;;;2.30;0.60;;;12.20;81.50;;;;;;5071524;28;20424;-67
2021/03/10 11:31:55;;;;;;;2.40;0.77;;;12.20;81.80;;;;;;5072512;28;20494;-68
2021/03/10 11:34:21;;;;;;;2.20;0.30;;;12.20;81.10;;;;;;5071232;28;20928;-68
2021/03/10 11:36:47;;;;;;;2.40;0.70;;;12.40;79.80;;;;;;5072560;28;20660;-67
2021/03/10 11:39:13;;;;;;;2.60;1.07;;;12.60;79.80;;;;;;5072173;28;20460;-68
2021/03/10 11:41:39;;;;;;;2.83;0.70;;;12.60;77.90;;;;;;5073035;28;20405;-68
2021/03/10 11:44:06;;;;;;;2.47;0.97;;;12.80;74.60;;;;;;5072307;28;20397;-69
2021/03/10 11:46:32;;;;;;;2.30;0.30;;;12.80;74.70;;;;;;5075195;28;20192;-67
2021/03/10 11:48:58;;;;;;;2.30;0.40;;;12.80;73.40;;;;;;5076215;28;20489;-68
2021/03/10 11:51:23;;;;;;;2.30;0.40;;;13.00;73.60;;;;;;5076522;28;20179;-68
2021/03/10 11:53:49;;;;;;;2.33;0.40;;;13.20;72.60;;;;;;5076276;28;20176;-68
2021/03/10 11:56:15;;;;;;;2.40;0.43;;;13.30;71.30;;;;;;5076109;28;20191;-69
2021/03/10 11:58:41;;;;;;;2.50;0.57;;;13.40;71.30;;;;;;5075733;28;20533;-68
2021/03/10 12:01:06;;;;;;;3.13;1.43;;;13.40;70.00;;;;;;5076559;28;20175;-68
2021/03/10 12:03:34;;;;;;;2.57;0.70;;;13.40;71.20;;;;;;5075414;28;20197;-67
2021/03/10 12:06:00;;;;;;;2.50;0.40;;;13.40;70.30;;;;;;5074973;28;20184;-67
2021/03/10 12:08:26;;;;;;;3.63;1.13;;;13.40;71.40;;;;;;5075419;28;20947;-67
2021/03/10 12:10:52;;;;;;;2.70;0.77;;;13.50;71.60;;;;;;5076023;28;20432;-68
2021/03/10 12:13:18;;;;;;;2.50;0.30;;;13.50;71.50;;;;;;5069356;28;20187;-68
2021/03/10 12:15:43;;;;;;;2.50;0.40;;;13.60;71.00;;;;;;5056129;28;20197;-68
2021/03/10 12:18:09;;;;;;;2.50;0.40;;;13.60;71.30;;;;;;5066608;28;20179;-68
2021/03/10 12:20:35;;;;;;;3.73;0.83;;;13.60;70.60;;;;;;5075833;28;20601;-67
2021/03/10 12:23:00;;;;;;;3.10;1.03;;;13.60;70.70;;;;;;5075867;28;20221;-68
2021/03/10 12:25:27;;;;;;;2.50;0.30;;;13.50;70.60;;;;;;5075251;28;20426;-68
2021/03/10 12:27:55;;;;;;;2.50;0.30;;;13.40;70.90;;;;;;5075399;28;20183;-67
2021/03/10 12:30:21;;;;;;;2.50;0.40;;;13.30;72.50;;;;;;5075820;28;20409;-67
2021/03/10 12:32:51;;;;;;;2.70;0.70;;;13.10;71.80;;;;;;5074352;28;20931;-68
2021/03/10 12:35:16;;;;;;;3.70;1.80;;;13.00;73.10;;;;;;5075415;28;20571;-71
2021/03/10 12:37:42;;;;;;;2.60;0.70;;;12.90;72.10;;;;;;5075465;28;20511;-71
2021/03/10 12:40:09;;;;;;;2.97;1.00;;;12.80;73.70;;;;;;5075513;28;20444;-70
2021/03/10 12:42:35;;;;;;;2.90;1.60;;;12.60;73.50;;;;;;5075512;28;20178;-71
2021/03/10 12:45:03;;;;;;;2.70;0.70;;;12.50;74.00;;;;;;5075123;28;20424;-69
2021/03/10 12:47:30;;;;;;;3.83;0.90;;;12.60;72.80;;;;;;5075282;28;20166;-68
2021/03/10 12:49:55;;;;;;;2.47;0.40;;;12.70;73.00;;;;;;5075494;28;20416;-68
2021/03/10 12:52:21;;;;;;;2.50;0.30;;;12.60;71.10;;;;;;5075239;28;20408;-68
2021/03/10 12:54:47;;;;;;;2.50;0.30;;;12.50;71.00;;;;;;5074768;28;20217;-65
2021/03/10 12:57:12;;;;;;;2.43;0.30;;;12.50;72.40;;;;;;5074875;28;20240;-68
2021/03/10 12:59:38;;;;;;;2.50;0.40;;;12.50;70.90;;;;;;5075238;28;20235;-69
2021/03/10 13:02:04;;;;;;;2.50;0.40;;;12.50;71.90;;;;;;5075406;28;20167;-67
2021/03/10 13:04:30;;;;;;;2.60;0.50;;;12.60;71.20;;;;;;5073460;28;20207;-68